sensor_id;sensor_type;location;lat;lon;timestamp;P1;durP1;ratioP1;P2;durP2;ratioP2
14369;SDS011;7268;50.792;0.252;2023-01-31T00:01:49;22.08;;;3.35;;
14369;SDS011;7268;50.792;0.252;2023-01-31T00:04:16;16.63;;;3.33;;
14369;SDS011;7268;50.792;0.252;2023-01-31T00:06:43;26.38;;;3.38;;
14369;SDS011;7268;50.792;0.252;2023-01-31T00:09:16;20.80;;;3.67;;
14369;SDS011;7268;50.792;0.252;2023-01-31T00:11:44;23.55;;;4.22;;
14369;SDS011;7268;50.792;0.252;2023-01-31T00:14:14;19.13;;;3.22;;
14369;SDS011;7268;50.792;0.252;2023-01-31T00:16:43;20.08;;;3.63;;
14369;SDS011;7268;50.792;0.252;2023-01-31T00:19:10;20.60;;;3.72;;
14369;SDS011;7268;50.792;0.252;2023-01-31T00:21:37;18.95;;;3.60;;
14369;SDS011;7268;50.792;0.252;2023-01-31T00:24:10;20.80;;;3.97;;
14369;SDS011;7268;50.792;0.252;2023-01-31T00:26:37;21.30;;;3.42;;
14369;SDS011;7268;50.792;0.252;2023-01-31T00:29:05;19.58;;;3.92;;
14369;SDS011;7268;50.792;0.252;2023-01-31T00:31:33;25.23;;;3.75;;
14369;SDS011;7268;50.792;0.252;2023-01-31T00:34:01;20.02;;;4.05;;
14369;SDS011;7268;50.792;0.252;2023-01-31T00:36:29;21.15;;;3.70;;
14369;SDS011;7268;50.792;0.252;2023-01-31T00:38:58;18.50;;;4.07;;
14369;SDS011;7268;50.792;0.252;2023-01-31T00:41:26;19.63;;;2.80;;
14369;SDS011;7268;50.792;0.252;2023-01-31T00:43:54;20.17;;;3.70;;
14369;SDS011;7268;50.792;0.252;2023-01-31T00:46:22;23.58;;;4.50;;
14369;SDS011;7268;50.792;0.252;2023-01-31T00:48:49;25.55;;;4.07;;
14369;SDS011;7268;50.792;0.252;2023-01-31T00:51:17;23.63;;;4.35;;
14369;SDS011;7268;50.792;0.252;2023-01-31T00:53:44;21.50;;;4.63;;
14369;SDS011;7268;50.792;0.252;2023-01-31T00:56:13;24.65;;;3.60;;
14369;SDS011;7268;50.792;0.252;2023-01-31T00:58:41;22.70;;;3.28;;
14369;SDS011;7268;50.792;0.252;2023-01-31T01:01:09;19.83;;;4.50;;
14369;SDS011;7268;50.792;0.252;2023-01-31T01:03:37;17.50;;;3.58;;
14369;SDS011;7268;50.792;0.252;2023-01-31T01:06:05;21.98;;;3.67;;
14369;SDS011;7268;50.792;0.252;2023-01-31T01:08:32;20.35;;;3.13;;
14369;SDS011;7268;50.792;0.252;2023-01-31T01:11:07;18.80;;;4.15;;
14369;SDS011;7268;50.792;0.252;2023-01-31T01:13:35;16.83;;;3.55;;
14369;SDS011;7268;50.792;0.252;2023-01-31T01:16:04;21.88;;;3.45;;
14369;SDS011;7268;50.792;0.252;2023-01-31T01:18:31;19.13;;;3.42;;
14369;SDS011;7268;50.792;0.252;2023-01-31T01:21:07;19.58;;;3.67;;
14369;SDS011;7268;50.792;0.252;2023-01-31T01:23:35;17.13;;;3.40;;
14369;SDS011;7268;50.792;0.252;2023-01-31T01:26:02;20.40;;;3.28;;
14369;SDS011;7268;50.792;0.252;2023-01-31T01:28:33;22.05;;;3.22;;
14369;SDS011;7268;50.792;0.252;2023-01-31T01:31:05;13.15;;;2.45;;
14369;SDS011;7268;50.792;0.252;2023-01-31T01:33:33;18.52;;;4.03;;
14369;SDS011;7268;50.792;0.252;2023-01-31T01:36:01;18.42;;;3.67;;
14369;SDS011;7268;50.792;0.252;2023-01-31T01:38:29;28.52;;;4.90;;
14369;SDS011;7268;50.792;0.252;2023-01-31T01:40:56;20.23;;;4.03;;
14369;SDS011;7268;50.792;0.252;2023-01-31T01:46:12;21.20;;;3.85;;
14369;SDS011;7268;50.792;0.252;2023-01-31T01:48:41;13.68;;;2.75;;
14369;SDS011;7268;50.792;0.252;2023-01-31T01:51:09;15.25;;;3.10;;
14369;SDS011;7268;50.792;0.252;2023-01-31T01:53:37;16.05;;;3.38;;
14369;SDS011;7268;50.792;0.252;2023-01-31T01:56:06;22.90;;;3.53;;
14369;SDS011;7268;50.792;0.252;2023-01-31T02:01:10;22.77;;;3.28;;
14369;SDS011;7268;50.792;0.252;2023-01-31T02:03:39;21.05;;;4.57;;
14369;SDS011;7268;50.792;0.252;2023-01-31T02:06:06;23.77;;;4.25;;
14369;SDS011;7268;50.792;0.252;2023-01-31T02:08:35;18.80;;;3.55;;
14369;SDS011;7268;50.792;0.252;2023-01-31T02:13:41;25.77;;;3.78;;
14369;SDS011;7268;50.792;0.252;2023-01-31T02:16:09;21.23;;;3.25;;
14369;SDS011;7268;50.792;0.252;2023-01-31T02:18:36;22.67;;;3.42;;
14369;SDS011;7268;50.792;0.252;2023-01-31T02:21:10;20.65;;;2.60;;
14369;SDS011;7268;50.792;0.252;2023-01-31T02:23:54;18.63;;;3.95;;
14369;SDS011;7268;50.792;0.252;2023-01-31T02:37:15;19.13;;;2.58;;
14369;SDS011;7268;50.792;0.252;2023-01-31T02:45:04;24.33;;;3.63;;
14369;SDS011;7268;50.792;0.252;2023-01-31T02:47:42;22.08;;;3.88;;
14369;SDS011;7268;50.792;0.252;2023-01-31T02:53:23;24.80;;;3.58;;
14369;SDS011;7268;50.792;0.252;2023-01-31T02:58:41;16.67;;;2.75;;
14369;SDS011;7268;50.792;0.252;2023-01-31T03:01:12;29.20;;;4.65;;
14369;SDS011;7268;50.792;0.252;2023-01-31T03:03:40;18.77;;;4.28;;
14369;SDS011;7268;50.792;0.252;2023-01-31T03:11:17;25.00;;;3.85;;
14369;SDS011;7268;50.792;0.252;2023-01-31T03:13:51;22.75;;;3.72;;
14369;SDS011;7268;50.792;0.252;2023-01-31T03:16:25;18.15;;;4.07;;
14369;SDS011;7268;50.792;0.252;2023-01-31T03:19:19;20.20;;;3.10;;
14369;SDS011;7268;50.792;0.252;2023-01-31T03:21:51;20.77;;;3.05;;
14369;SDS011;7268;50.792;0.252;2023-01-31T03:24:21;22.92;;;3.42;;
14369;SDS011;7268;50.792;0.252;2023-01-31T03:26:52;34.80;;;4.30;;
14369;SDS011;7268;50.792;0.252;2023-01-31T03:29:21;26.75;;;3.10;;
14369;SDS011;7268;50.792;0.252;2023-01-31T03:31:52;22.00;;;3.17;;
14369;SDS011;7268;50.792;0.252;2023-01-31T03:34:20;24.10;;;2.42;;
14369;SDS011;7268;50.792;0.252;2023-01-31T03:37:11;17.23;;;2.13;;
14369;SDS011;7268;50.792;0.252;2023-01-31T03:39:55;25.42;;;3.40;;
14369;SDS011;7268;50.792;0.252;2023-01-31T03:42:30;13.00;;;1.58;;
14369;SDS011;7268;50.792;0.252;2023-01-31T03:45:03;25.20;;;2.13;;
14369;SDS011;7268;50.792;0.252;2023-01-31T03:47:37;20.55;;;2.28;;
14369;SDS011;7268;50.792;0.252;2023-01-31T03:50:06;21.33;;;2.22;;
14369;SDS011;7268;50.792;0.252;2023-01-31T03:52:36;16.95;;;2.25;;
14369;SDS011;7268;50.792;0.252;2023-01-31T03:55:07;16.45;;;1.95;;
14369;SDS011;7268;50.792;0.252;2023-01-31T03:57:36;17.92;;;2.20;;
14369;SDS011;7268;50.792;0.252;2023-01-31T04:00:06;12.38;;;1.80;;
14369;SDS011;7268;50.792;0.252;2023-01-31T04:02:35;17.85;;;2.22;;
14369;SDS011;7268;50.792;0.252;2023-01-31T04:05:07;21.13;;;2.13;;
14369;SDS011;7268;50.792;0.252;2023-01-31T04:07:35;12.25;;;1.70;;
14369;SDS011;7268;50.792;0.252;2023-01-31T04:10:06;10.73;;;1.52;;
14369;SDS011;7268;50.792;0.252;2023-01-31T04:12:37;18.75;;;1.80;;
14369;SDS011;7268;50.792;0.252;2023-01-31T04:15:05;19.52;;;2.15;;
14369;SDS011;7268;50.792;0.252;2023-01-31T04:17:32;12.48;;;1.45;;
14369;SDS011;7268;50.792;0.252;2023-01-31T04:20:00;18.95;;;2.47;;
14369;SDS011;7268;50.792;0.252;2023-01-31T04:22:27;17.83;;;1.73;;
14369;SDS011;7268;50.792;0.252;2023-01-31T04:24:55;12.35;;;1.48;;
14369;SDS011;7268;50.792;0.252;2023-01-31T04:27:22;16.80;;;1.60;;
14369;SDS011;7268;50.792;0.252;2023-01-31T04:29:49;17.00;;;1.63;;
14369;SDS011;7268;50.792;0.252;2023-01-31T04:32:16;16.20;;;1.48;;
14369;SDS011;7268;50.792;0.252;2023-01-31T04:34:43;23.60;;;1.60;;
14369;SDS011;7268;50.792;0.252;2023-01-31T04:37:10;11.48;;;1.33;;
14369;SDS011;7268;50.792;0.252;2023-01-31T04:39:38;19.63;;;2.08;;
14369;SDS011;7268;50.792;0.252;2023-01-31T04:42:05;16.67;;;1.67;;
14369;SDS011;7268;50.792;0.252;2023-01-31T04:44:32;12.93;;;2.22;;
14369;SDS011;7268;50.792;0.252;2023-01-31T04:46:59;19.83;;;1.50;;
14369;SDS011;7268;50.792;0.252;2023-01-31T04:49:26;11.85;;;1.40;;
14369;SDS011;7268;50.792;0.252;2023-01-31T04:51:54;20.08;;;1.95;;
14369;SDS011;7268;50.792;0.252;2023-01-31T04:54:21;10.80;;;1.77;;
14369;SDS011;7268;50.792;0.252;2023-01-31T04:56:48;10.68;;;1.50;;
14369;SDS011;7268;50.792;0.252;2023-01-31T04:59:15;15.75;;;1.52;;
14369;SDS011;7268;50.792;0.252;2023-01-31T05:01:42;22.38;;;1.50;;
14369;SDS011;7268;50.792;0.252;2023-01-31T05:04:10;23.73;;;1.58;;
14369;SDS011;7268;50.792;0.252;2023-01-31T05:06:37;15.32;;;1.33;;
14369;SDS011;7268;50.792;0.252;2023-01-31T05:09:05;12.20;;;2.15;;
14369;SDS011;7268;50.792;0.252;2023-01-31T05:11:33;12.13;;;2.20;;
14369;SDS011;7268;50.792;0.252;2023-01-31T05:14:00;7.90;;;1.33;;
14369;SDS011;7268;50.792;0.252;2023-01-31T05:16:27;9.60;;;1.17;;
14369;SDS011;7268;50.792;0.252;2023-01-31T05:18:55;15.75;;;2.03;;
14369;SDS011;7268;50.792;0.252;2023-01-31T05:21:22;25.50;;;2.15;;
14369;SDS011;7268;50.792;0.252;2023-01-31T05:23:50;14.35;;;1.60;;
14369;SDS011;7268;50.792;0.252;2023-01-31T05:26:17;8.57;;;1.23;;
14369;SDS011;7268;50.792;0.252;2023-01-31T05:28:44;7.50;;;1.25;;
14369;SDS011;7268;50.792;0.252;2023-01-31T05:31:11;18.25;;;1.10;;
14369;SDS011;7268;50.792;0.252;2023-01-31T05:33:39;17.85;;;1.17;;
14369;SDS011;7268;50.792;0.252;2023-01-31T05:36:06;6.28;;;1.00;;
14369;SDS011;7268;50.792;0.252;2023-01-31T05:38:34;8.75;;;1.30;;
14369;SDS011;7268;50.792;0.252;2023-01-31T05:41:01;10.18;;;1.45;;
14369;SDS011;7268;50.792;0.252;2023-01-31T05:43:28;19.02;;;2.13;;
14369;SDS011;7268;50.792;0.252;2023-01-31T05:45:55;12.57;;;1.38;;
14369;SDS011;7268;50.792;0.252;2023-01-31T05:48:22;16.05;;;1.30;;
14369;SDS011;7268;50.792;0.252;2023-01-31T05:50:50;20.10;;;1.52;;
14369;SDS011;7268;50.792;0.252;2023-01-31T05:53:17;11.55;;;1.20;;
14369;SDS011;7268;50.792;0.252;2023-01-31T05:55:44;25.10;;;1.13;;
14369;SDS011;7268;50.792;0.252;2023-01-31T05:58:11;12.63;;;1.13;;
14369;SDS011;7268;50.792;0.252;2023-01-31T06:00:38;11.98;;;1.38;;
14369;SDS011;7268;50.792;0.252;2023-01-31T06:03:07;12.45;;;0.85;;
14369;SDS011;7268;50.792;0.252;2023-01-31T06:05:34;18.33;;;1.05;;
14369;SDS011;7268;50.792;0.252;2023-01-31T06:08:01;6.45;;;0.70;;
14369;SDS011;7268;50.792;0.252;2023-01-31T06:10:29;16.08;;;1.33;;
14369;SDS011;7268;50.792;0.252;2023-01-31T06:12:56;19.08;;;2.17;;
14369;SDS011;7268;50.792;0.252;2023-01-31T06:15:23;20.20;;;1.95;;
14369;SDS011;7268;50.792;0.252;2023-01-31T06:17:51;21.98;;;1.52;;
14369;SDS011;7268;50.792;0.252;2023-01-31T06:20:18;16.13;;;1.67;;
14369;SDS011;7268;50.792;0.252;2023-01-31T06:22:45;14.55;;;1.13;;
14369;SDS011;7268;50.792;0.252;2023-01-31T06:25:12;9.00;;;1.52;;
14369;SDS011;7268;50.792;0.252;2023-01-31T06:27:39;15.23;;;1.30;;
14369;SDS011;7268;50.792;0.252;2023-01-31T06:30:07;20.13;;;1.30;;
14369;SDS011;7268;50.792;0.252;2023-01-31T06:32:35;13.52;;;0.98;;
14369;SDS011;7268;50.792;0.252;2023-01-31T06:35:02;16.45;;;0.82;;
14369;SDS011;7268;50.792;0.252;2023-01-31T06:37:30;19.23;;;1.92;;
14369;SDS011;7268;50.792;0.252;2023-01-31T06:39:57;14.15;;;2.42;;
14369;SDS011;7268;50.792;0.252;2023-01-31T06:42:25;11.68;;;1.05;;
14369;SDS011;7268;50.792;0.252;2023-01-31T06:44:52;10.45;;;1.25;;
14369;SDS011;7268;50.792;0.252;2023-01-31T06:47:19;16.65;;;2.78;;
14369;SDS011;7268;50.792;0.252;2023-01-31T06:49:46;8.82;;;0.85;;
14369;SDS011;7268;50.792;0.252;2023-01-31T06:52:14;11.15;;;1.02;;
14369;SDS011;7268;50.792;0.252;2023-01-31T06:54:41;17.40;;;1.33;;
14369;SDS011;7268;50.792;0.252;2023-01-31T06:57:08;7.53;;;0.70;;
14369;SDS011;7268;50.792;0.252;2023-01-31T06:59:35;13.40;;;1.27;;
14369;SDS011;7268;50.792;0.252;2023-01-31T07:02:02;11.07;;;0.80;;
14369;SDS011;7268;50.792;0.252;2023-01-31T07:04:30;16.15;;;0.75;;
14369;SDS011;7268;50.792;0.252;2023-01-31T07:06:57;9.70;;;0.95;;
14369;SDS011;7268;50.792;0.252;2023-01-31T07:09:25;24.67;;;1.65;;
14369;SDS011;7268;50.792;0.252;2023-01-31T07:11:52;13.50;;;0.95;;
14369;SDS011;7268;50.792;0.252;2023-01-31T07:14:19;12.77;;;1.05;;
14369;SDS011;7268;50.792;0.252;2023-01-31T07:16:46;5.18;;;0.60;;
14369;SDS011;7268;50.792;0.252;2023-01-31T07:19:14;7.53;;;0.75;;
14369;SDS011;7268;50.792;0.252;2023-01-31T07:21:41;14.52;;;0.88;;
14369;SDS011;7268;50.792;0.252;2023-01-31T07:24:09;12.23;;;0.93;;
14369;SDS011;7268;50.792;0.252;2023-01-31T07:26:37;13.18;;;1.60;;
14369;SDS011;7268;50.792;0.252;2023-01-31T07:29:04;16.08;;;2.28;;
14369;SDS011;7268;50.792;0.252;2023-01-31T07:31:31;8.50;;;0.95;;
14369;SDS011;7268;50.792;0.252;2023-01-31T07:33:59;10.27;;;0.80;;
14369;SDS011;7268;50.792;0.252;2023-01-31T07:36:26;11.60;;;0.80;;
14369;SDS011;7268;50.792;0.252;2023-01-31T07:38:53;17.00;;;1.83;;
14369;SDS011;7268;50.792;0.252;2023-01-31T07:41:22;17.05;;;0.77;;
14369;SDS011;7268;50.792;0.252;2023-01-31T07:43:49;4.60;;;0.63;;
14369;SDS011;7268;50.792;0.252;2023-01-31T07:46:17;12.95;;;0.98;;
14369;SDS011;7268;50.792;0.252;2023-01-31T07:48:44;4.55;;;0.82;;
14369;SDS011;7268;50.792;0.252;2023-01-31T07:51:11;7.03;;;0.80;;
14369;SDS011;7268;50.792;0.252;2023-01-31T07:53:40;13.38;;;1.23;;
14369;SDS011;7268;50.792;0.252;2023-01-31T07:56:09;15.98;;;1.13;;
14369;SDS011;7268;50.792;0.252;2023-01-31T07:58:37;17.15;;;1.33;;
14369;SDS011;7268;50.792;0.252;2023-01-31T08:01:05;8.98;;;0.82;;
14369;SDS011;7268;50.792;0.252;2023-01-31T08:03:51;9.40;;;1.02;;
14369;SDS011;7268;50.792;0.252;2023-01-31T08:06:18;19.48;;;1.20;;
14369;SDS011;7268;50.792;0.252;2023-01-31T08:08:46;15.65;;;1.02;;
14369;SDS011;7268;50.792;0.252;2023-01-31T08:11:13;6.20;;;0.85;;
14369;SDS011;7268;50.792;0.252;2023-01-31T08:13:41;14.02;;;0.82;;
14369;SDS011;7268;50.792;0.252;2023-01-31T08:16:08;15.82;;;1.17;;
14369;SDS011;7268;50.792;0.252;2023-01-31T08:18:36;20.40;;;2.50;;
14369;SDS011;7268;50.792;0.252;2023-01-31T08:21:04;7.05;;;0.70;;
14369;SDS011;7268;50.792;0.252;2023-01-31T08:23:32;13.73;;;1.00;;
14369;SDS011;7268;50.792;0.252;2023-01-31T08:26:03;16.42;;;1.83;;
14369;SDS011;7268;50.792;0.252;2023-01-31T08:28:31;17.25;;;1.23;;
14369;SDS011;7268;50.792;0.252;2023-01-31T08:30:58;10.90;;;1.17;;
14369;SDS011;7268;50.792;0.252;2023-01-31T08:33:35;31.10;;;1.90;;
14369;SDS011;7268;50.792;0.252;2023-01-31T08:38:36;11.93;;;1.00;;
14369;SDS011;7268;50.792;0.252;2023-01-31T08:41:03;24.70;;;1.40;;
14369;SDS011;7268;50.792;0.252;2023-01-31T08:43:30;15.43;;;1.33;;
14369;SDS011;7268;50.792;0.252;2023-01-31T08:46:10;16.85;;;0.98;;
14369;SDS011;7268;50.792;0.252;2023-01-31T08:48:38;20.05;;;1.83;;
14369;SDS011;7268;50.792;0.252;2023-01-31T08:51:08;15.43;;;1.13;;
14369;SDS011;7268;50.792;0.252;2023-01-31T08:53:41;19.25;;;1.50;;
14369;SDS011;7268;50.792;0.252;2023-01-31T08:56:10;10.95;;;0.88;;
14369;SDS011;7268;50.792;0.252;2023-01-31T08:58:38;17.80;;;1.48;;
14369;SDS011;7268;50.792;0.252;2023-01-31T09:01:08;10.70;;;1.17;;
14369;SDS011;7268;50.792;0.252;2023-01-31T09:03:36;20.33;;;2.53;;
14369;SDS011;7268;50.792;0.252;2023-01-31T09:06:05;12.23;;;1.20;;
14369;SDS011;7268;50.792;0.252;2023-01-31T09:08:33;12.55;;;1.02;;
14369;SDS011;7268;50.792;0.252;2023-01-31T09:11:00;13.95;;;0.80;;
14369;SDS011;7268;50.792;0.252;2023-01-31T09:13:29;11.23;;;1.35;;
14369;SDS011;7268;50.792;0.252;2023-01-31T09:15:59;17.88;;;1.50;;
14369;SDS011;7268;50.792;0.252;2023-01-31T09:18:27;12.88;;;1.52;;
14369;SDS011;7268;50.792;0.252;2023-01-31T09:20:55;13.23;;;1.25;;
14369;SDS011;7268;50.792;0.252;2023-01-31T09:23:22;18.10;;;1.23;;
14369;SDS011;7268;50.792;0.252;2023-01-31T09:25:50;20.63;;;1.38;;
14369;SDS011;7268;50.792;0.252;2023-01-31T09:28:18;13.85;;;1.73;;
14369;SDS011;7268;50.792;0.252;2023-01-31T09:30:45;15.25;;;1.27;;
14369;SDS011;7268;50.792;0.252;2023-01-31T09:33:13;12.57;;;1.48;;
14369;SDS011;7268;50.792;0.252;2023-01-31T09:35:40;17.58;;;1.83;;
14369;SDS011;7268;50.792;0.252;2023-01-31T09:38:07;22.40;;;2.35;;
14369;SDS011;7268;50.792;0.252;2023-01-31T09:40:35;11.65;;;1.65;;
14369;SDS011;7268;50.792;0.252;2023-01-31T09:43:08;25.02;;;2.10;;
14369;SDS011;7268;50.792;0.252;2023-01-31T09:45:38;24.40;;;1.98;;
14369;SDS011;7268;50.792;0.252;2023-01-31T09:48:09;21.65;;;1.30;;
14369;SDS011;7268;50.792;0.252;2023-01-31T09:50:42;22.55;;;1.20;;
14369;SDS011;7268;50.792;0.252;2023-01-31T09:53:14;25.42;;;1.88;;
14369;SDS011;7268;50.792;0.252;2023-01-31T09:58:39;16.55;;;0.90;;
14369;SDS011;7268;50.792;0.252;2023-01-31T10:01:10;20.30;;;1.55;;
14369;SDS011;7268;50.792;0.252;2023-01-31T10:03:43;16.40;;;2.13;;
14369;SDS011;7268;50.792;0.252;2023-01-31T10:06:17;27.00;;;1.73;;
14369;SDS011;7268;50.792;0.252;2023-01-31T10:08:56;10.52;;;1.17;;
14369;SDS011;7268;50.792;0.252;2023-01-31T10:11:35;18.17;;;1.80;;
14369;SDS011;7268;50.792;0.252;2023-01-31T10:16:34;8.90;;;0.98;;
14369;SDS011;7268;50.792;0.252;2023-01-31T10:19:07;19.63;;;1.50;;
14369;SDS011;7268;50.792;0.252;2023-01-31T10:21:38;7.10;;;0.93;;
14369;SDS011;7268;50.792;0.252;2023-01-31T10:26:39;19.10;;;1.75;;
14369;SDS011;7268;50.792;0.252;2023-01-31T10:32:27;12.05;;;1.00;;
14369;SDS011;7268;50.792;0.252;2023-01-31T10:34:40;10.80;;;0.90;;
14369;SDS011;7268;50.792;0.252;2023-01-31T10:42:36;13.32;;;1.08;;
14369;SDS011;7268;50.792;0.252;2023-01-31T10:47:35;13.38;;;0.95;;
14369;SDS011;7268;50.792;0.252;2023-01-31T10:50:13;13.75;;;1.27;;
14369;SDS011;7268;50.792;0.252;2023-01-31T10:55:22;11.07;;;1.00;;
14369;SDS011;7268;50.792;0.252;2023-01-31T10:57:51;12.20;;;0.60;;
14369;SDS011;7268;50.792;0.252;2023-01-31T11:00:21;10.18;;;1.40;;
14369;SDS011;7268;50.792;0.252;2023-01-31T11:02:49;15.07;;;1.30;;
14369;SDS011;7268;50.792;0.252;2023-01-31T11:05:18;24.52;;;1.45;;
14369;SDS011;7268;50.792;0.252;2023-01-31T11:07:46;14.38;;;1.30;;
14369;SDS011;7268;50.792;0.252;2023-01-31T11:10:30;12.50;;;1.00;;
14369;SDS011;7268;50.792;0.252;2023-01-31T11:12:58;17.92;;;1.42;;
14369;SDS011;7268;50.792;0.252;2023-01-31T11:15:39;13.52;;;1.27;;
14369;SDS011;7268;50.792;0.252;2023-01-31T11:18:13;10.90;;;2.00;;
14369;SDS011;7268;50.792;0.252;2023-01-31T11:20:44;6.60;;;1.10;;
14369;SDS011;7268;50.792;0.252;2023-01-31T11:23:13;15.27;;;1.20;;
14369;SDS011;7268;50.792;0.252;2023-01-31T11:25:46;19.08;;;1.40;;
14369;SDS011;7268;50.792;0.252;2023-01-31T11:28:57;13.50;;;1.10;;
14369;SDS011;7268;50.792;0.252;2023-01-31T11:31:05;19.50;;;1.50;;
14369;SDS011;7268;50.792;0.252;2023-01-31T11:33:38;13.70;;;1.00;;
14369;SDS011;7268;50.792;0.252;2023-01-31T11:36:10;21.95;;;2.00;;
14369;SDS011;7268;50.792;0.252;2023-01-31T11:38:38;17.90;;;1.58;;
14369;SDS011;7268;50.792;0.252;2023-01-31T11:44:04;12.40;;;1.27;;
14369;SDS011;7268;50.792;0.252;2023-01-31T11:46:38;14.40;;;1.88;;
14369;SDS011;7268;50.792;0.252;2023-01-31T11:49:10;14.25;;;1.25;;
14369;SDS011;7268;50.792;0.252;2023-01-31T11:51:38;11.40;;;0.97;;
14369;SDS011;7268;50.792;0.252;2023-01-31T11:54:06;15.93;;;1.20;;
14369;SDS011;7268;50.792;0.252;2023-01-31T11:56:34;16.50;;;1.33;;
14369;SDS011;7268;50.792;0.252;2023-01-31T11:59:03;16.25;;;1.25;;
14369;SDS011;7268;50.792;0.252;2023-01-31T12:01:34;14.63;;;1.25;;
14369;SDS011;7268;50.792;0.252;2023-01-31T12:04:03;12.85;;;1.23;;
14369;SDS011;7268;50.792;0.252;2023-01-31T12:06:34;16.55;;;1.20;;
14369;SDS011;7268;50.792;0.252;2023-01-31T12:09:03;8.38;;;0.88;;
14369;SDS011;7268;50.792;0.252;2023-01-31T12:11:31;12.38;;;1.58;;
14369;SDS011;7268;50.792;0.252;2023-01-31T12:16:32;7.65;;;0.88;;
14369;SDS011;7268;50.792;0.252;2023-01-31T12:26:34;8.48;;;1.05;;
14369;SDS011;7268;50.792;0.252;2023-01-31T12:29:34;18.40;;;1.42;;
14369;SDS011;7268;50.792;0.252;2023-01-31T12:31:57;9.40;;;1.30;;
14369;SDS011;7268;50.792;0.252;2023-01-31T12:39:41;12.43;;;1.00;;
14369;SDS011;7268;50.792;0.252;2023-01-31T12:45:05;16.58;;;1.10;;
14369;SDS011;7268;50.792;0.252;2023-01-31T12:52:46;18.77;;;1.45;;
14369;SDS011;7268;50.792;0.252;2023-01-31T12:55:28;15.45;;;1.30;;
14369;SDS011;7268;50.792;0.252;2023-01-31T13:05:45;18.30;;;1.25;;
14369;SDS011;7268;50.792;0.252;2023-01-31T13:08:17;8.18;;;0.80;;
14369;SDS011;7268;50.792;0.252;2023-01-31T13:10:57;21.52;;;1.70;;
14369;SDS011;7268;50.792;0.252;2023-01-31T13:13:26;17.30;;;1.35;;
14369;SDS011;7268;50.792;0.252;2023-01-31T13:16:41;22.65;;;1.67;;
14369;SDS011;7268;50.792;0.252;2023-01-31T13:18:42;13.68;;;1.45;;
14369;SDS011;7268;50.792;0.252;2023-01-31T13:21:12;17.23;;;1.23;;
14369;SDS011;7268;50.792;0.252;2023-01-31T13:23:42;10.15;;;1.00;;
14369;SDS011;7268;50.792;0.252;2023-01-31T13:26:17;11.07;;;1.33;;
14369;SDS011;7268;50.792;0.252;2023-01-31T13:29:00;14.75;;;2.22;;
14369;SDS011;7268;50.792;0.252;2023-01-31T13:31:31;12.68;;;1.27;;
14369;SDS011;7268;50.792;0.252;2023-01-31T13:34:04;16.55;;;0.80;;
14369;SDS011;7268;50.792;0.252;2023-01-31T13:36:35;12.85;;;0.88;;
14369;SDS011;7268;50.792;0.252;2023-01-31T13:39:07;13.20;;;1.42;;
14369;SDS011;7268;50.792;0.252;2023-01-31T13:41:39;14.02;;;1.30;;
14369;SDS011;7268;50.792;0.252;2023-01-31T13:44:07;12.30;;;1.25;;
14369;SDS011;7268;50.792;0.252;2023-01-31T13:49:27;17.90;;;1.40;;
14369;SDS011;7268;50.792;0.252;2023-01-31T13:51:57;17.65;;;1.40;;
14369;SDS011;7268;50.792;0.252;2023-01-31T13:54:35;15.05;;;1.15;;
14369;SDS011;7268;50.792;0.252;2023-01-31T13:57:03;12.50;;;1.00;;
14369;SDS011;7268;50.792;0.252;2023-01-31T13:59:32;12.35;;;1.08;;
14369;SDS011;7268;50.792;0.252;2023-01-31T14:02:01;8.40;;;1.20;;
14369;SDS011;7268;50.792;0.252;2023-01-31T14:04:30;24.98;;;1.50;;
14369;SDS011;7268;50.792;0.252;2023-01-31T14:09:32;15.68;;;1.63;;
14369;SDS011;7268;50.792;0.252;2023-01-31T14:12:02;20.52;;;2.03;;
14369;SDS011;7268;50.792;0.252;2023-01-31T14:14:48;23.92;;;1.80;;
14369;SDS011;7268;50.792;0.252;2023-01-31T14:22:27;14.80;;;1.83;;
14369;SDS011;7268;50.792;0.252;2023-01-31T14:25:00;17.95;;;1.95;;
14369;SDS011;7268;50.792;0.252;2023-01-31T14:27:36;14.02;;;1.23;;
14369;SDS011;7268;50.792;0.252;2023-01-31T14:53:16;22.23;;;1.60;;
14369;SDS011;7268;50.792;0.252;2023-01-31T14:55:47;18.63;;;1.98;;
14369;SDS011;7268;50.792;0.252;2023-01-31T14:58:21;15.02;;;2.40;;
14369;SDS011;7268;50.792;0.252;2023-01-31T15:00:52;17.98;;;1.85;;
14369;SDS011;7268;50.792;0.252;2023-01-31T15:03:22;18.88;;;1.80;;
14369;SDS011;7268;50.792;0.252;2023-01-31T15:05:54;21.67;;;1.58;;
14369;SDS011;7268;50.792;0.252;2023-01-31T15:08:29;17.13;;;1.33;;
14369;SDS011;7268;50.792;0.252;2023-01-31T15:11:43;18.02;;;2.33;;
14369;SDS011;7268;50.792;0.252;2023-01-31T15:14:27;22.00;;;1.27;;
14369;SDS011;7268;50.792;0.252;2023-01-31T15:19:59;16.48;;;1.73;;
14369;SDS011;7268;50.792;0.252;2023-01-31T15:22:29;20.08;;;1.50;;
14369;SDS011;7268;50.792;0.252;2023-01-31T15:24:58;22.05;;;1.77;;
14369;SDS011;7268;50.792;0.252;2023-01-31T15:27:28;20.98;;;2.88;;
14369;SDS011;7268;50.792;0.252;2023-01-31T15:37:39;30.35;;;3.58;;
14369;SDS011;7268;50.792;0.252;2023-01-31T15:40:16;27.58;;;1.52;;
14369;SDS011;7268;50.792;0.252;2023-01-31T15:42:44;27.73;;;2.08;;
14369;SDS011;7268;50.792;0.252;2023-01-31T15:45:13;23.38;;;1.50;;
14369;SDS011;7268;50.792;0.252;2023-01-31T15:47:40;28.15;;;3.47;;
14369;SDS011;7268;50.792;0.252;2023-01-31T15:50:17;18.58;;;1.95;;
14369;SDS011;7268;50.792;0.252;2023-01-31T15:52:45;31.88;;;2.22;;
14369;SDS011;7268;50.792;0.252;2023-01-31T15:55:13;29.58;;;1.55;;
14369;SDS011;7268;50.792;0.252;2023-01-31T15:57:41;18.48;;;1.52;;
14369;SDS011;7268;50.792;0.252;2023-01-31T16:00:16;20.00;;;3.15;;
14369;SDS011;7268;50.792;0.252;2023-01-31T16:02:44;15.30;;;1.58;;
14369;SDS011;7268;50.792;0.252;2023-01-31T16:05:18;26.33;;;1.88;;
14369;SDS011;7268;50.792;0.252;2023-01-31T16:07:46;19.98;;;2.25;;
14369;SDS011;7268;50.792;0.252;2023-01-31T16:10:14;25.15;;;3.17;;
14369;SDS011;7268;50.792;0.252;2023-01-31T16:12:48;11.07;;;1.50;;
14369;SDS011;7268;50.792;0.252;2023-01-31T16:15:18;11.07;;;1.60;;
14369;SDS011;7268;50.792;0.252;2023-01-31T16:17:47;25.42;;;3.75;;
14369;SDS011;7268;50.792;0.252;2023-01-31T16:20:34;19.52;;;2.85;;
14369;SDS011;7268;50.792;0.252;2023-01-31T16:23:02;21.55;;;1.60;;
14369;SDS011;7268;50.792;0.252;2023-01-31T16:25:31;25.25;;;2.50;;
14369;SDS011;7268;50.792;0.252;2023-01-31T16:28:02;18.08;;;1.23;;
14369;SDS011;7268;50.792;0.252;2023-01-31T16:30:30;14.98;;;1.27;;
14369;SDS011;7268;50.792;0.252;2023-01-31T16:33:00;12.73;;;1.25;;
14369;SDS011;7268;50.792;0.252;2023-01-31T16:35:28;13.35;;;0.95;;
14369;SDS011;7268;50.792;0.252;2023-01-31T16:38:03;15.75;;;1.40;;
14369;SDS011;7268;50.792;0.252;2023-01-31T16:40:33;8.60;;;1.17;;
14369;SDS011;7268;50.792;0.252;2023-01-31T16:45:51;14.07;;;1.20;;
14369;SDS011;7268;50.792;0.252;2023-01-31T16:48:32;16.42;;;1.50;;
14369;SDS011;7268;50.792;0.252;2023-01-31T16:51:36;16.13;;;1.85;;
14369;SDS011;7268;50.792;0.252;2023-01-31T16:54:10;13.45;;;1.90;;
14369;SDS011;7268;50.792;0.252;2023-01-31T16:56:35;14.88;;;1.05;;
14369;SDS011;7268;50.792;0.252;2023-01-31T16:59:02;9.68;;;1.73;;
14369;SDS011;7268;50.792;0.252;2023-01-31T17:01:30;19.83;;;1.70;;
14369;SDS011;7268;50.792;0.252;2023-01-31T17:04:05;15.45;;;1.33;;
14369;SDS011;7268;50.792;0.252;2023-01-31T17:06:40;13.13;;;1.23;;
14369;SDS011;7268;50.792;0.252;2023-01-31T17:09:08;12.90;;;1.27;;
14369;SDS011;7268;50.792;0.252;2023-01-31T17:11:39;13.00;;;1.53;;
14369;SDS011;7268;50.792;0.252;2023-01-31T17:14:09;14.98;;;1.00;;
14369;SDS011;7268;50.792;0.252;2023-01-31T17:16:36;20.05;;;1.83;;
14369;SDS011;7268;50.792;0.252;2023-01-31T17:19:04;13.60;;;1.42;;
14369;SDS011;7268;50.792;0.252;2023-01-31T17:21:37;17.00;;;2.00;;
14369;SDS011;7268;50.792;0.252;2023-01-31T17:24:08;13.98;;;1.52;;
14369;SDS011;7268;50.792;0.252;2023-01-31T17:26:36;18.25;;;1.67;;